logo
Rechercher aéroport 
image banner adimage banner adimage banner ad
image banner ad

HKBZ - Buna

Situé à Buna, Kenya

ICAO - , IATA -

Données fournies par Airmate  

Information générale

Coordonnées: N2°50'49" E39°29'3"
Élévation : 1705 feet MSL.
Variation magnétique : 1° East
Voir autres Aéroports à North-Eastern Province

Données opérationnelles

Special qualification required
Heure actuelle UTC:
Heure actuelle locale:
Météo à : - ( 0 km )
METAR: YPXM 290958Z AUTO 13005KT 9999 // SCT016 BKN022 26/23 Q1011
Voir NOTAMs / SUP AIP / TFR affectant cet aéroport [VIEW]
Fréquences de communication: [VIEW]

Pistes:

Identifiant RWYQFULongueur (ft)Largeur (ft)SurfaceLDA (ft)
1200UNK
3000UNK

Coordonnées de l'aéroport

Adresse: Buna Kenya

Vue satellite de HKBZ